Time;durP1;ratioP1;P1;durP2;ratioP2;P2;SDS_P1;SDS_P2;PMS_P1;PMS_P2;Temp;Humidity;BMP_temperature;BMP_pressure;BME280_temperature;BME280_humidity;BME280_pressure;Samples;Min_cycle;Max_cycle;Signal;HPM_P1;HPM_P2
2023/06/21 00:01:38;;;;;;;4.38;3.97;;;17.40;99.90;;;;;;4130852;28;20038;-65
2023/06/21 00:03:39;;;;;;;8.55;4.82;;;17.40;99.90;;;;;;4128812;28;20058;-64
2023/06/21 00:05:40;;;;;;;5.00;4.43;;;17.30;99.90;;;;;;4131063;28;20046;-70
2023/06/21 00:07:42;;;;;;;6.57;4.90;;;17.30;99.90;;;;;;4129949;28;20100;-71
2023/06/21 00:09:43;;;;;;;6.40;5.00;;;17.30;99.90;;;;;;4130545;28;20034;-77
2023/06/21 00:11:44;;;;;;;5.05;4.53;;;17.30;99.90;;;;;;4129221;28;20553;-70
2023/06/21 00:13:45;;;;;;;5.50;4.53;;;17.30;99.90;;;;;;4130363;28;20081;-74
2023/06/21 00:15:46;;;;;;;5.10;4.60;;;17.20;99.90;;;;;;4129302;28;20046;-72
2023/06/21 00:17:48;;;;;;;6.63;5.00;;;17.30;99.90;;;;;;4130964;28;20109;-73
2023/06/21 00:19:49;;;;;;;6.72;4.75;;;17.30;99.90;;;;;;4129955;28;20027;-75
2023/06/21 00:21:51;;;;;;;6.45;4.90;;;17.20;99.90;;;;;;4130449;28;20085;-74
2023/06/21 00:23:52;;;;;;;6.07;5.10;;;17.30;99.90;;;;;;4130107;28;20113;-70
2023/06/21 00:25:54;;;;;;;6.65;5.00;;;17.20;99.90;;;;;;4130264;28;20038;-74
2023/06/21 00:27:55;;;;;;;6.90;4.57;;;17.20;99.90;;;;;;4130729;28;20088;-74
2023/06/21 00:29:56;;;;;;;6.97;5.35;;;17.20;99.90;;;;;;4129715;28;20034;-73
2023/06/21 00:31:58;;;;;;;4.53;4.07;;;17.20;99.90;;;;;;4131120;28;20096;-73
2023/06/21 00:33:59;;;;;;;7.70;5.00;;;17.20;99.90;;;;;;4129814;28;20491;-73
2023/06/21 00:36:00;;;;;;;6.57;4.70;;;17.20;99.90;;;;;;4130470;28;20038;-74
2023/06/21 00:38:01;;;;;;;8.25;4.63;;;17.20;99.90;;;;;;4129107;28;20089;-70
2023/06/21 00:40:03;;;;;;;5.80;4.60;;;17.20;99.90;;;;;;4130742;28;20039;-69
2023/06/21 00:42:06;;;;;;;6.22;4.72;;;17.20;99.90;;;;;;4129163;28;20112;-64
2023/06/21 00:44:08;;;;;;;6.30;4.35;;;17.20;99.90;;;;;;4129352;28;20101;-67
2023/06/21 00:46:09;;;;;;;6.20;5.00;;;17.20;99.90;;;;;;4129142;28;20069;-73
2023/06/21 00:48:10;;;;;;;9.77;4.53;;;17.20;99.90;;;;;;4130291;28;20455;-65
2023/06/21 00:50:12;;;;;;;5.25;4.75;;;17.20;99.90;;;;;;4128494;28;20034;-66
2023/06/21 00:52:14;;;;;;;5.30;4.63;;;17.10;99.90;;;;;;4128865;28;20035;-70
2023/06/21 00:54:18;;;;;;;6.03;4.85;;;17.10;99.90;;;;;;4129162;28;20105;-73
2023/06/21 00:56:19;;;;;;;6.63;5.07;;;17.00;99.90;;;;;;4129420;28;20054;-70
2023/06/21 00:58:20;;;;;;;4.80;4.30;;;17.00;99.90;;;;;;4130235;28;20038;-71
2023/06/21 01:00:22;;;;;;;7.60;4.88;;;17.00;99.90;;;;;;4128589;28;20026;-75
2023/06/21 01:02:23;;;;;;;7.38;4.47;;;17.00;99.90;;;;;;4128864;28;20542;-71
2023/06/21 01:04:26;;;;;;;5.22;4.65;;;17.00;99.90;;;;;;4127796;28;20054;-73
2023/06/21 01:06:36;;;;;;;5.93;4.47;;;17.00;99.90;;;;;;4129684;28;20031;-67
2023/06/21 01:09:06;;;;;;;5.05;4.50;;;17.00;99.90;;;;;;4129404;28;20084;-77
2023/06/21 01:11:37;;;;;;;5.50;4.57;;;16.90;99.90;;;;;;4129702;28;20108;-67
2023/06/21 01:13:59;;;;;;;5.43;4.20;;;16.90;99.90;;;;;;4129546;28;20105;-71
2023/06/21 01:16:39;;;;;;;7.57;4.65;;;16.90;99.90;;;;;;4128679;28;20038;-76
2023/06/21 01:18:45;;;;;;;7.57;4.82;;;16.90;99.90;;;;;;4126567;28;20097;-74
2023/06/21 01:20:57;;;;;;;5.38;4.20;;;16.90;99.90;;;;;;4128891;28;20042;-73
2023/06/21 01:23:17;;;;;;;4.78;4.30;;;16.90;99.90;;;;;;4130396;28;20023;-70
2023/06/21 01:25:56;;;;;;;5.95;4.38;;;16.90;99.90;;;;;;4129531;28;20477;-74
2023/06/21 01:28:03;;;;;;;5.90;4.63;;;17.00;99.90;;;;;;4129609;28;20100;-67
2023/06/21 01:30:08;;;;;;;6.68;4.55;;;16.90;99.90;;;;;;4128483;28;20092;-74
2023/06/21 01:32:11;;;;;;;8.90;4.78;;;16.90;99.90;;;;;;4130016;28;20092;-74
2023/06/21 01:34:13;;;;;;;4.75;4.20;;;16.80;99.90;;;;;;4128659;28;20145;-74
2023/06/21 01:36:14;;;;;;;5.43;4.72;;;16.80;99.90;;;;;;4128795;28;20497;-61
2023/06/21 01:38:15;;;;;;;7.95;4.55;;;16.80;99.90;;;;;;4127102;28;20050;-67
2023/06/21 01:40:17;;;;;;;7.07;4.80;;;16.80;99.90;;;;;;4128180;28;20105;-74
2023/06/21 01:42:19;;;;;;;4.95;4.45;;;16.80;99.90;;;;;;4128550;28;20109;-64
2023/06/21 01:44:21;;;;;;;5.28;4.78;;;16.80;99.90;;;;;;4128133;28;20042;-63
2023/06/21 01:46:25;;;;;;;6.03;5.38;;;16.70;99.90;;;;;;4127640;28;20038;-68
2023/06/21 01:48:27;;;;;;;5.00;4.50;;;16.70;99.90;;;;;;4129489;28;20035;-66
2023/06/21 01:50:29;;;;;;;5.00;4.50;;;16.70;99.90;;;;;;4129093;28;20173;-62
2023/06/21 01:52:32;;;;;;;7.57;4.50;;;16.70;99.90;;;;;;4128332;28;20026;-62
2023/06/21 01:54:34;;;;;;;6.20;4.70;;;16.70;99.90;;;;;;4143390;28;20049;-61
2023/06/21 01:56:37;;;;;;;6.20;5.00;;;16.60;99.90;;;;;;4128095;28;20039;-62
2023/06/21 01:58:39;;;;;;;6.60;5.00;;;16.70;99.90;;;;;;4129463;28;20027;-61
2023/06/21 02:00:40;;;;;;;7.53;4.80;;;16.70;99.90;;;;;;4128103;28;20176;-61
2023/06/21 02:02:53;;;;;;;7.43;5.30;;;16.70;99.90;;;;;;4129404;28;20533;-61
2023/06/21 02:04:54;;;;;;;10.02;4.95;;;16.70;99.90;;;;;;4127936;28;20130;-61
2023/06/21 02:06:56;;;;;;;7.15;4.85;;;16.60;99.90;;;;;;4129201;28;20069;-61
2023/06/21 02:08:59;;;;;;;5.97;4.65;;;16.60;99.90;;;;;;4127720;28;20053;-62
2023/06/21 02:11:01;;;;;;;7.93;4.63;;;16.50;99.90;;;;;;4129217;28;20205;-62
2023/06/21 02:13:02;;;;;;;6.28;4.97;;;16.50;99.90;;;;;;4127710;28;20138;-61
2023/06/21 02:15:04;;;;;;;6.55;4.90;;;16.50;99.90;;;;;;4129256;28;20085;-64
2023/06/21 02:17:05;;;;;;;4.57;3.95;;;16.50;99.90;;;;;;4128366;28;20434;-62
2023/06/21 02:19:07;;;;;;;5.70;4.80;;;16.40;99.90;;;;;;4129187;28;20030;-62
2023/06/21 02:21:08;;;;;;;8.70;5.25;;;16.40;99.90;;;;;;4128067;28;20085;-61
2023/06/21 02:23:09;;;;;;;7.35;4.90;;;16.40;99.90;;;;;;4128261;28;20050;-61
2023/06/21 02:25:11;;;;;;;4.70;4.22;;;16.30;99.90;;;;;;4128000;28;20034;-62
2023/06/21 02:27:13;;;;;;;5.97;4.53;;;16.30;99.90;;;;;;4128492;28;20038;-61
2023/06/21 02:29:14;;;;;;;5.72;5.07;;;16.20;99.90;;;;;;4128191;28;20090;-63
2023/06/21 02:31:15;;;;;;;4.93;4.38;;;16.20;99.90;;;;;;4127945;28;20092;-62
2023/06/21 02:33:16;;;;;;;5.50;4.70;;;16.20;99.90;;;;;;4128677;28;20034;-62
2023/06/21 02:35:17;;;;;;;7.10;5.00;;;16.20;99.90;;;;;;4142445;28;20038;-62
2023/06/21 02:37:18;;;;;;;7.43;5.63;;;16.30;99.90;;;;;;4128410;28;20070;-63
2023/06/21 02:39:21;;;;;;;5.85;5.25;;;16.20;99.90;;;;;;4127641;28;20030;-66
2023/06/21 02:41:22;;;;;;;8.00;5.30;;;16.30;99.90;;;;;;4128765;28;20097;-67
2023/06/21 02:43:23;;;;;;;7.13;5.05;;;16.30;99.90;;;;;;4127885;28;20038;-66
2023/06/21 02:45:24;;;;;;;7.18;6.18;;;16.40;99.90;;;;;;4128826;28;20088;-75
2023/06/21 02:47:25;;;;;;;9.95;5.45;;;16.50;99.90;;;;;;4127764;28;20561;-76
2023/06/21 02:49:26;;;;;;;8.55;6.28;;;16.60;99.90;;;;;;4128837;28;20054;-66
2023/06/21 02:51:28;;;;;;;5.45;4.68;;;16.70;99.90;;;;;;4127553;28;20082;-73
2023/06/21 02:53:29;;;;;;;5.95;4.70;;;16.80;99.90;;;;;;4128361;28;20487;-67
2023/06/21 02:55:30;;;;;;;8.95;5.55;;;16.90;99.90;;;;;;4142823;28;20034;-66
2023/06/21 02:57:31;;;;;;;7.25;5.07;;;17.00;99.90;;;;;;4127334;28;20121;-64
2023/06/21 02:59:32;;;;;;;7.38;5.47;;;17.20;99.90;;;;;;4127906;28;20090;-74
2023/06/21 03:01:33;;;;;;;5.50;4.60;;;17.20;99.90;;;;;;4127744;28;20026;-76
2023/06/21 03:03:35;;;;;;;5.63;5.13;;;17.40;99.90;;;;;;4128545;28;20101;-79
2023/06/21 03:05:37;;;;;;;5.95;4.57;;;17.40;99.90;;;;;;4127687;28;20061;-74
2023/06/21 03:07:44;;;;;;;5.90;4.13;;;17.50;99.90;;;;;;4128763;28;20026;-75
2023/06/21 03:09:45;;;;;;;6.25;5.40;;;17.60;99.90;;;;;;4126927;28;20114;-62
2023/06/21 03:11:47;;;;;;;5.47;4.30;;;17.70;99.90;;;;;;4128756;28;20051;-64
2023/06/21 03:13:48;;;;;;;4.82;4.20;;;17.80;99.90;;;;;;4127686;28;20046;-63
2023/06/21 03:15:49;;;;;;;7.38;4.88;;;17.80;99.90;;;;;;4128637;28;20096;-64
2023/06/21 03:17:51;;;;;;;5.78;4.70;;;18.00;99.90;;;;;;4141994;28;20104;-62
2023/06/21 03:19:52;;;;;;;6.30;4.88;;;18.20;99.90;;;;;;4128559;28;20038;-62
2023/06/21 03:21:53;;;;;;;6.10;5.18;;;18.30;99.90;;;;;;4127304;28;20038;-65
2023/06/21 03:23:54;;;;;;;7.00;5.15;;;18.40;99.90;;;;;;4129784;28;20081;-65
2023/06/21 03:25:55;;;;;;;6.35;5.15;;;18.40;99.90;;;;;;4130902;28;20084;-62
2023/06/21 03:27:59;;;;;;;6.30;4.50;;;18.60;99.90;;;;;;4130787;28;20039;-64
2023/06/21 03:30:00;;;;;;;6.45;4.53;;;18.70;99.90;;;;;;4130524;28;20132;-62
2023/06/21 03:32:01;;;;;;;6.47;5.00;;;18.80;99.90;;;;;;4130515;28;20108;-62
2023/06/21 03:34:02;;;;;;;7.28;5.00;;;19.00;99.90;;;;;;4130980;28;20038;-62
2023/06/21 03:36:04;;;;;;;5.93;4.50;;;19.20;99.90;;;;;;4129998;28;20772;-63
2023/06/21 03:38:07;;;;;;;8.02;4.40;;;19.40;99.90;;;;;;4131628;28;20042;-66
2023/06/21 03:40:13;;;;;;;6.15;4.45;;;19.70;99.90;;;;;;4129973;28;20038;-62
2023/06/21 03:42:14;;;;;;;6.60;4.57;;;20.00;99.90;;;;;;4129676;28;20088;-62
2023/06/21 03:44:15;;;;;;;6.95;4.70;;;20.20;99.90;;;;;;4130311;28;20080;-63
2023/06/21 03:46:18;;;;;;;9.55;5.65;;;20.30;99.90;;;;;;4131065;28;20046;-66
2023/06/21 03:48:19;;;;;;;6.50;4.22;;;20.50;99.90;;;;;;4130257;28;20487;-63
2023/06/21 03:50:20;;;;;;;7.43;4.50;;;21.00;99.90;;;;;;4130978;28;20034;-64
2023/06/21 03:52:21;;;;;;;6.38;4.80;;;21.30;99.90;;;;;;4129938;28;20026;-63
2023/06/21 03:54:22;;;;;;;6.72;4.18;;;21.60;99.90;;;;;;4131319;28;20026;-63
2023/06/21 03:56:23;;;;;;;5.88;4.40;;;21.90;99.90;;;;;;4129649;28;20379;-62
2023/06/21 03:58:24;;;;;;;8.60;5.05;;;22.20;99.90;;;;;;4130762;28;20034;-62
2023/06/21 04:00:25;;;;;;;8.15;4.22;;;22.50;99.90;;;;;;4130269;28;20101;-63
2023/06/21 04:02:27;;;;;;;9.93;4.32;;;22.80;99.90;;;;;;4130367;28;20042;-61
2023/06/21 04:04:28;;;;;;;5.05;4.55;;;22.90;99.90;;;;;;4130191;28;20080;-62
2023/06/21 04:06:29;;;;;;;4.72;4.05;;;23.10;99.90;;;;;;4144146;28;20504;-62
2023/06/21 04:08:30;;;;;;;5.13;4.10;;;23.30;99.90;;;;;;4130916;28;20034;-73
2023/06/21 04:10:31;;;;;;;8.63;4.22;;;23.60;99.90;;;;;;4129537;28;20057;-61
2023/06/21 04:12:32;;;;;;;9.85;4.18;;;23.50;99.90;;;;;;4130921;28;20034;-62
2023/06/21 04:14:33;;;;;;;4.30;3.90;;;23.60;99.90;;;;;;4129851;28;20030;-61
2023/06/21 04:16:34;;;;;;;6.35;4.45;;;23.70;99.90;;;;;;4130853;28;20073;-61
2023/06/21 04:18:36;;;;;;;4.57;3.80;;;24.10;99.90;;;;;;4129806;28;20054;-61
2023/06/21 04:20:37;;;;;;;4.20;3.80;;;24.50;99.90;;;;;;4130338;28;20046;-61
2023/06/21 04:22:39;;;;;;;6.50;4.20;;;25.10;99.90;;;;;;4129015;28;20122;-61
2023/06/21 04:24:40;;;;;;;6.88;4.22;;;25.40;99.90;;;;;;4130568;28;20399;-62
2023/06/21 04:26:41;;;;;;;9.75;4.32;;;25.20;99.90;;;;;;4129528;28;20487;-65
2023/06/21 04:28:42;;;;;;;8.43;4.30;;;25.00;99.90;;;;;;4130099;28;20030;-64
2023/06/21 04:30:43;;;;;;;4.13;3.72;;;25.00;99.90;;;;;;4129156;28;20042;-62
2023/06/21 04:32:45;;;;;;;8.90;4.45;;;24.80;99.80;;;;;;4129402;28;20101;-62
2023/06/21 04:34:48;;;;;;;6.13;4.47;;;24.90;99.90;;;;;;4144791;28;20029;-62
2023/06/21 04:36:49;;;;;;;5.88;3.67;;;25.40;99.50;;;;;;4129204;28;20038;-63
2023/06/21 04:38:50;;;;;;;6.00;4.10;;;26.00;98.90;;;;;;4130125;28;20046;-62
2023/06/21 04:40:52;;;;;;;5.05;4.15;;;26.00;98.20;;;;;;4129347;28;20030;-63
2023/06/21 04:42:57;;;;;;;6.30;3.95;;;25.90;97.80;;;;;;4130367;28;20085;-63
2023/06/21 04:44:59;;;;;;;5.72;3.70;;;25.30;98.00;;;;;;4129326;28;20074;-62
2023/06/21 04:47:02;;;;;;;8.60;4.50;;;25.30;98.30;;;;;;4128644;28;20675;-62
2023/06/21 04:49:04;;;;;;;5.90;3.67;;;25.90;97.80;;;;;;4129298;28;20050;-62
2023/06/21 04:51:05;;;;;;;4.32;3.83;;;26.20;97.20;;;;;;4129416;28;20035;-62
2023/06/21 04:53:06;;;;;;;4.13;3.67;;;26.50;96.80;;;;;;4129040;28;20434;-62
2023/06/21 04:55:09;;;;;;;6.53;4.30;;;26.70;96.60;;;;;;4130334;28;20026;-62
2023/06/21 04:57:12;;;;;;;6.82;3.92;;;27.20;96.10;;;;;;4129009;28;20132;-62
2023/06/21 04:59:13;;;;;;;4.32;3.72;;;27.80;95.60;;;;;;4130104;28;20355;-61
2023/06/21 05:01:14;;;;;;;4.88;3.22;;;28.40;94.80;;;;;;4129246;28;20081;-62
2023/06/21 05:03:16;;;;;;;8.98;3.53;;;28.70;94.20;;;;;;4129670;28;20104;-61
2023/06/21 05:05:17;;;;;;;4.45;3.80;;;29.10;93.60;;;;;;4129056;28;20043;-63
2023/06/21 05:07:18;;;;;;;6.38;3.70;;;29.10;93.00;;;;;;4129162;28;20080;-61
2023/06/21 05:09:19;;;;;;;7.18;3.80;;;29.40;92.60;;;;;;4129303;28;20546;-62
2023/06/21 05:11:20;;;;;;;5.18;4.35;;;29.00;92.20;;;;;;4128366;28;20046;-62
2023/06/21 05:13:21;;;;;;;7.75;4.43;;;28.80;92.20;;;;;;4129690;28;20077;-62
2023/06/21 05:15:23;;;;;;;5.53;3.63;;;28.70;92.10;;;;;;4128523;28;20073;-61
2023/06/21 05:17:24;;;;;;;4.18;3.75;;;28.70;92.00;;;;;;4129630;28;20081;-61
2023/06/21 05:19:25;;;;;;;4.88;3.40;;;28.60;91.90;;;;;;4128848;28;20478;-62
2023/06/21 05:21:26;;;;;;;6.85;3.60;;;28.40;91.70;;;;;;4129309;28;20034;-61
2023/06/21 05:23:27;;;;;;;4.18;3.80;;;28.00;91.60;;;;;;4128308;28;20038;-62
2023/06/21 05:25:30;;;;;;;5.43;4.18;;;27.80;91.80;;;;;;4129006;28;20430;-61
2023/06/21 05:27:31;;;;;;;5.35;3.75;;;27.60;91.80;;;;;;4128507;28;20077;-61
2023/06/21 05:29:34;;;;;;;3.80;3.50;;;27.20;92.00;;;;;;4129127;28;20126;-62
2023/06/21 05:31:35;;;;;;;4.20;3.80;;;27.40;92.20;;;;;;4128602;28;20578;-62
2023/06/21 05:33:36;;;;;;;7.53;4.05;;;27.90;91.90;;;;;;4128916;28;20141;-66
2023/06/21 05:35:37;;;;;;;5.28;3.63;;;28.50;91.40;;;;;;4128976;28;20030;-66
2023/06/21 05:37:39;;;;;;;9.35;4.10;;;28.80;90.90;;;;;;4128002;28;20090;-61
2023/06/21 05:39:40;;;;;;;6.45;3.92;;;28.80;90.70;;;;;;4128580;28;20038;-62
2023/06/21 05:41:41;;;;;;;6.57;4.93;;;28.90;90.60;;;;;;4128433;28;20459;-61
2023/06/21 05:43:43;;;;;;;4.32;3.75;;;29.30;90.30;;;;;;4129288;28;20422;-63
2023/06/21 05:45:44;;;;;;;7.88;4.15;;;29.30;90.10;;;;;;4127420;28;20042;-62
2023/06/21 05:47:45;;;;;;;9.48;3.88;;;29.40;90.00;;;;;;4129171;28;20093;-62
2023/06/21 05:49:48;;;;;;;5.95;3.85;;;29.90;89.10;;;;;;4128085;28;20030;-62
2023/06/21 05:51:49;;;;;;;4.72;3.78;;;30.30;87.90;;;;;;4128996;28;20093;-61
2023/06/21 05:53:50;;;;;;;13.27;4.40;;;30.60;87.50;;;;;;4128086;28;20026;-62
2023/06/21 05:55:54;;;;;;;4.35;3.63;;;30.60;87.00;;;;;;4129211;28;20026;-61
2023/06/21 05:57:55;;;;;;;5.15;3.63;;;30.60;86.70;;;;;;4127570;28;20042;-62
2023/06/21 05:59:57;;;;;;;4.85;4.03;;;30.70;86.20;;;;;;4128455;28;20322;-62
2023/06/21 06:01:58;;;;;;;4.60;3.42;;;30.70;86.10;;;;;;4127815;28;20031;-61
2023/06/21 06:03:59;;;;;;;3.60;3.30;;;31.00;85.70;;;;;;4127983;28;20038;-61
2023/06/21 06:06:00;;;;;;;3.92;3.30;;;31.20;85.20;;;;;;4128019;28;20034;-63
2023/06/21 06:08:01;;;;;;;4.82;3.55;;;31.50;84.70;;;;;;4126483;28;20148;-63
2023/06/21 06:10:04;;;;;;;4.45;3.30;;;31.30;84.30;;;;;;4128258;28;20069;-62
2023/06/21 06:12:05;;;;;;;6.53;3.15;;;31.40;84.30;;;;;;4127717;28;20085;-63
2023/06/21 06:14:10;;;;;;;6.18;3.63;;;31.50;83.60;;;;;;4128711;28;20038;-61
2023/06/21 06:16:13;;;;;;;3.70;3.40;;;31.40;83.40;;;;;;4127829;28;20030;-62
2023/06/21 06:18:14;;;;;;;5.55;3.17;;;31.30;83.40;;;;;;4128400;28;20120;-64
2023/06/21 06:20:15;;;;;;;6.50;4.00;;;31.30;83.30;;;;;;4127743;28;20026;-62
2023/06/21 06:22:16;;;;;;;5.90;3.90;;;31.20;83.30;;;;;;4128219;28;20053;-63
2023/06/21 06:24:17;;;;;;;6.68;5.20;;;31.30;83.30;;;;;;4125839;28;20431;-63
2023/06/21 06:26:24;;;;;;;4.07;3.67;;;31.50;82.80;;;;;;4128571;28;20498;-60
2023/06/21 06:28:25;;;;;;;6.47;3.70;;;31.30;82.50;;;;;;4127405;28;20361;-62
2023/06/21 06:30:26;;;;;;;3.65;2.83;;;30.90;83.00;;;;;;4127528;28;20037;-61
2023/06/21 06:32:27;;;;;;;5.03;3.17;;;31.00;83.10;;;;;;4127161;28;20084;-62
2023/06/21 06:34:28;;;;;;;3.72;3.42;;;31.00;83.00;;;;;;4127604;28;20046;-68
2023/06/21 06:36:29;;;;;;;4.40;3.97;;;31.10;82.70;;;;;;4126511;28;20072;-63
2023/06/21 06:38:31;;;;;;;4.38;4.00;;;31.40;82.30;;;;;;4128431;28;20042;-63
2023/06/21 06:40:33;;;;;;;15.15;4.47;;;31.60;82.00;;;;;;4127916;28;20092;-62
2023/06/21 06:42:34;;;;;;;5.07;3.53;;;31.60;82.00;;;;;;4126982;28;20089;-62
2023/06/21 06:44:35;;;;;;;6.68;3.67;;;31.40;81.80;;;;;;4127666;28;20089;-65
2023/06/21 06:46:36;;;;;;;6.82;3.97;;;31.70;81.50;;;;;;4127014;28;20089;-70
2023/06/21 06:48:37;;;;;;;5.80;3.97;;;32.00;81.10;;;;;;4128638;28;20423;-61
2023/06/21 06:50:39;;;;;;;3.97;3.35;;;32.20;80.60;;;;;;4126910;28;20141;-64
2023/06/21 06:52:40;;;;;;;6.00;3.58;;;32.20;80.30;;;;;;4127888;28;20069;-61
2023/06/21 06:54:41;;;;;;;7.20;3.85;;;32.20;80.30;;;;;;4126779;28;20042;-63
2023/06/21 06:56:42;;;;;;;7.85;3.47;;;32.10;80.60;;;;;;4127631;28;20038;-63
2023/06/21 06:58:43;;;;;;;9.55;3.78;;;32.10;80.50;;;;;;4126141;28;20042;-65
2023/06/21 07:00:44;;;;;;;5.70;3.97;;;32.50;80.00;;;;;;4128169;28;20030;-63
2023/06/21 07:02:45;;;;;;;4.85;3.28;;;32.80;79.30;;;;;;4126957;28;20022;-64
2023/06/21 07:04:47;;;;;;;4.50;3.40;;;32.90;79.00;;;;;;4127404;28;20482;-63
2023/06/21 07:06:48;;;;;;;5.10;3.33;;;32.00;78.60;;;;;;4127207;28;20081;-63
2023/06/21 07:08:49;;;;;;;4.25;3.88;;;31.60;79.60;;;;;;4127627;28;20030;-62
2023/06/21 07:10:50;;;;;;;6.82;3.80;;;31.30;80.00;;;;;;4126810;28;20050;-66
2023/06/21 07:12:51;;;;;;;5.18;3.50;;;31.20;80.30;;;;;;4126905;28;20100;-65
2023/06/21 07:14:53;;;;;;;7.50;3.45;;;31.60;80.10;;;;;;4141818;28;20050;-64
2023/06/21 07:16:54;;;;;;;5.38;3.83;;;31.70;79.80;;;;;;4126109;28;20038;-65
2023/06/21 07:18:55;;;;;;;5.65;3.95;;;31.80;79.30;;;;;;4127996;28;20038;-66
2023/06/21 07:20:56;;;;;;;4.07;3.67;;;32.20;79.10;;;;;;4126880;28;20448;-68
2023/06/21 07:22:57;;;;;;;3.95;3.38;;;32.20;78.40;;;;;;4127397;28;20026;-65
2023/06/21 07:24:59;;;;;;;5.20;3.80;;;32.40;78.10;;;;;;4126866;28;20101;-69
2023/06/21 07:27:00;;;;;;;6.03;3.60;;;32.30;77.70;;;;;;4128233;28;20034;-64
2023/06/21 07:29:01;;;;;;;4.50;3.45;;;32.40;77.60;;;;;;4126417;28;20027;-63
2023/06/21 07:31:05;;;;;;;3.83;3.53;;;32.20;77.30;;;;;;4127428;28;20088;-65
2023/06/21 07:33:08;;;;;;;6.20;3.70;;;31.70;77.20;;;;;;4126549;28;20034;-68
2023/06/21 07:35:09;;;;;;;4.25;3.70;;;31.10;77.80;;;;;;4127355;28;20101;-65
2023/06/21 07:37:11;;;;;;;4.28;3.25;;;30.90;78.30;;;;;;4126365;28;20088;-63
2023/06/21 07:39:13;;;;;;;6.53;4.63;;;31.20;78.50;;;;;;4126615;28;20054;-66
2023/06/21 07:41:17;;;;;;;4.38;3.65;;;31.60;78.30;;;;;;4126643;28;20085;-68
2023/06/21 07:43:19;;;;;;;6.20;4.05;;;31.00;78.60;;;;;;4127178;28;20479;-65
2023/06/21 07:45:20;;;;;;;11.20;4.95;;;30.30;80.10;;;;;;4127374;28;20030;-64
2023/06/21 07:47:22;;;;;;;9.18;5.20;;;29.80;81.60;;;;;;4127003;28;20081;-62
2023/06/21 07:49:23;;;;;;;6.10;4.95;;;29.30;83.20;;;;;;4127651;28;20034;-63
2023/06/21 07:51:24;;;;;;;7.53;4.18;;;28.80;83.80;;;;;;4126733;28;20026;-69
2023/06/21 07:53:25;;;;;;;5.75;4.70;;;28.50;84.40;;;;;;4127545;28;20037;-70
2023/06/21 07:55:26;;;;;;;11.32;5.22;;;28.30;84.80;;;;;;4126214;28;20135;-65
2023/06/21 07:57:28;;;;;;;7.30;4.85;;;28.20;85.20;;;;;;4128105;28;20034;-64
2023/06/21 07:59:29;;;;;;;7.00;4.47;;;28.50;85.50;;;;;;4141707;28;20050;-63
2023/06/21 08:01:30;;;;;;;8.63;4.88;;;28.70;85.40;;;;;;4127406;28;20046;-69
2023/06/21 08:03:31;;;;;;;9.88;4.32;;;28.60;85.60;;;;;;4126688;28;20042;-63
2023/06/21 08:05:32;;;;;;;6.05;4.28;;;28.80;85.60;;;;;;4127926;28;20027;-69
2023/06/21 08:07:34;;;;;;;6.80;4.10;;;29.10;85.30;;;;;;4126808;28;20027;-64
2023/06/21 08:09:35;;;;;;;5.75;4.05;;;29.30;84.60;;;;;;4127977;28;20039;-63
2023/06/21 08:11:37;;;;;;;5.10;4.38;;;29.30;84.20;;;;;;4129423;28;20466;-65
2023/06/21 08:13:38;;;;;;;5.88;4.25;;;29.30;84.00;;;;;;4129483;28;20042;-65
2023/06/21 08:15:39;;;;;;;6.68;4.22;;;29.00;84.00;;;;;;4130301;28;20061;-63
2023/06/21 08:17:41;;;;;;;9.82;4.50;;;28.90;84.30;;;;;;4129619;28;20093;-64
2023/06/21 08:19:42;;;;;;;8.13;4.40;;;28.90;84.30;;;;;;4130476;28;20050;-66
2023/06/21 08:21:44;;;;;;;6.28;4.30;;;28.90;84.60;;;;;;4129072;28;20445;-67
2023/06/21 08:23:45;;;;;;;13.43;5.07;;;29.00;85.00;;;;;;4144640;28;20030;-62
2023/06/21 08:25:47;;;;;;;7.68;5.00;;;29.30;84.60;;;;;;4129465;28;20498;-63
2023/06/21 08:27:48;;;;;;;8.60;4.72;;;29.10;84.40;;;;;;4130117;28;20039;-63
2023/06/21 08:29:49;;;;;;;5.85;4.55;;;28.90;84.40;;;;;;4129093;28;20054;-67
2023/06/21 08:31:51;;;;;;;8.43;4.47;;;28.80;84.50;;;;;;4130709;28;20415;-62
2023/06/21 08:33:52;;;;;;;6.63;4.57;;;29.10;84.50;;;;;;4129356;28;20042;-63
2023/06/21 08:35:53;;;;;;;8.40;4.45;;;29.20;83.80;;;;;;4130157;28;20030;-65
2023/06/21 08:37:59;;;;;;;5.13;4.63;;;29.00;84.10;;;;;;4130027;28;20080;-60
2023/06/21 08:40:00;;;;;;;10.63;6.00;;;29.10;84.60;;;;;;4128590;28;20046;-61
2023/06/21 08:42:01;;;;;;;7.10;4.47;;;29.00;84.90;;;;;;4129514;28;20042;-62
2023/06/21 08:44:02;;;;;;;6.90;4.45;;;29.20;85.20;;;;;;4129933;28;20026;-69
2023/06/21 08:46:07;;;;;;;6.55;4.80;;;29.30;85.00;;;;;;4129785;28;20019;-63
2023/06/21 08:48:09;;;;;;;9.38;4.75;;;29.20;84.30;;;;;;4129569;28;20038;-65
2023/06/21 08:50:13;;;;;;;8.52;4.25;;;29.10;84.70;;;;;;4129656;28;20431;-64
2023/06/21 08:52:19;;;;;;;7.50;4.70;;;29.30;84.90;;;;;;4128110;28;20034;-63
2023/06/21 08:54:26;;;;;;;11.43;4.38;;;29.20;84.70;;;;;;4129884;28;20077;-68
2023/06/21 08:56:33;;;;;;;5.53;4.78;;;29.20;85.10;;;;;;4128717;28;20206;-69
2023/06/21 08:58:41;;;;;;;5.20;4.70;;;29.10;85.40;;;;;;4129937;28;20034;-61
2023/06/21 09:00:53;;;;;;;7.95;4.78;;;29.10;85.70;;;;;;4128569;28;20030;-62
2023/06/21 09:03:07;;;;;;;11.23;5.18;;;29.00;86.00;;;;;;4129634;28;20038;-61
2023/06/21 09:05:14;;;;;;;5.70;4.60;;;29.20;86.50;;;;;;4126774;28;20077;-64
2023/06/21 09:07:16;;;;;;;6.55;5.10;;;28.90;86.80;;;;;;4129918;28;20578;-64
2023/06/21 09:09:18;;;;;;;5.93;5.07;;;28.40;87.40;;;;;;4128879;28;20062;-62
2023/06/21 09:11:23;;;;;;;5.82;5.30;;;28.30;88.00;;;;;;4128045;28;20042;-63
2023/06/21 09:13:25;;;;;;;5.38;4.57;;;28.40;88.20;;;;;;4128811;28;20093;-66
2023/06/21 09:15:26;;;;;;;6.90;4.72;;;28.40;87.90;;;;;;4129974;28;20038;-66
2023/06/21 09:17:27;;;;;;;4.68;4.10;;;28.30;87.80;;;;;;4128998;28;20093;-67
2023/06/21 09:19:29;;;;;;;5.55;4.55;;;28.30;88.00;;;;;;4130218;28;20046;-63
2023/06/21 09:21:32;;;;;;;4.75;4.35;;;28.50;88.10;;;;;;4127402;28;20140;-66
2023/06/21 09:23:35;;;;;;;5.05;4.50;;;28.70;88.10;;;;;;4130036;28;20076;-65
2023/06/21 09:25:37;;;;;;;4.55;4.18;;;28.70;87.80;;;;;;4128512;28;20384;-65
2023/06/21 09:27:39;;;;;;;8.40;4.82;;;28.60;88.10;;;;;;4128925;28;20128;-65
2023/06/21 09:29:40;;;;;;;7.30;4.95;;;28.60;88.40;;;;;;4128902;28;20107;-68
2023/06/21 09:31:41;;;;;;;11.98;5.53;;;28.60;89.40;;;;;;4129178;28;20034;-66
2023/06/21 09:33:44;;;;;;;9.18;4.95;;;28.50;88.80;;;;;;4128942;28;20039;-67
2023/06/21 09:35:45;;;;;;;14.32;6.72;;;28.40;89.90;;;;;;4128398;28;20022;-70
2023/06/21 09:37:46;;;;;;;10.30;4.85;;;28.40;89.70;;;;;;4129054;28;20035;-64
2023/06/21 09:39:54;;;;;;;5.20;4.70;;;28.60;89.50;;;;;;4127828;28;20423;-63
2023/06/21 09:41:56;;;;;;;4.88;4.30;;;28.90;89.00;;;;;;4129027;28;20096;-65
2023/06/21 09:43:59;;;;;;;6.05;4.72;;;29.00;88.60;;;;;;4128335;28;20030;-62
2023/06/21 09:46:03;;;;;;;10.52;5.10;;;29.10;88.20;;;;;;4129122;28;20027;-68
2023/06/21 09:48:04;;;;;;;6.32;4.50;;;29.10;87.50;;;;;;4128333;28;20030;-67
2023/06/21 09:50:06;;;;;;;7.57;4.88;;;29.20;87.30;;;;;;4129263;28;20042;-64
2023/06/21 09:52:07;;;;;;;5.72;4.72;;;29.20;87.10;;;;;;4126770;28;20038;-67
2023/06/21 09:54:09;;;;;;;6.97;4.78;;;29.20;86.50;;;;;;4129022;28;20038;-64
2023/06/21 09:56:15;;;;;;;5.32;4.82;;;29.10;85.90;;;;;;4127597;28;20423;-64
2023/06/21 09:58:16;;;;;;;6.68;4.93;;;28.90;85.10;;;;;;4129438;28;20089;-64
2023/06/21 10:00:18;;;;;;;6.80;5.10;;;28.60;84.80;;;;;;4127531;28;20069;-64
2023/06/21 10:02:19;;;;;;;8.15;4.82;;;28.60;85.10;;;;;;4128905;28;20035;-65
2023/06/21 10:04:20;;;;;;;5.47;4.85;;;28.30;85.40;;;;;;4127683;28;20823;-65
2023/06/21 10:06:28;;;;;;;5.07;4.68;;;28.20;85.90;;;;;;4128860;28;20423;-65
2023/06/21 10:08:33;;;;;;;6.72;5.72;;;28.30;86.10;;;;;;4128203;28;20030;-64
2023/06/21 10:10:34;;;;;;;5.28;4.78;;;28.50;86.50;;;;;;4128123;28;20565;-65
2023/06/21 10:12:35;;;;;;;5.85;5.10;;;28.50;86.30;;;;;;4128364;28;20038;-63
2023/06/21 10:14:36;;;;;;;6.95;4.57;;;28.60;86.70;;;;;;4127434;28;20038;-64
2023/06/21 10:16:38;;;;;;;6.05;4.55;;;28.60;86.30;;;;;;4128764;28;20426;-65
2023/06/21 10:18:39;;;;;;;4.63;4.22;;;28.80;86.80;;;;;;4127818;28;20109;-64
2023/06/21 10:20:41;;;;;;;5.45;4.50;;;29.00;86.70;;;;;;4129055;28;20035;-64
2023/06/21 10:22:44;;;;;;;6.47;4.95;;;29.20;86.20;;;;;;4127173;28;20101;-65
2023/06/21 10:24:49;;;;;;;5.20;4.70;;;29.30;86.10;;;;;;4128762;28;20104;-69
2023/06/21 10:26:52;;;;;;;4.82;4.43;;;29.40;85.80;;;;;;4127115;28;20097;-67
2023/06/21 10:28:56;;;;;;;5.25;4.72;;;29.50;85.50;;;;;;4127357;28;20394;-68
2023/06/21 10:30:59;;;;;;;8.00;4.60;;;29.50;85.30;;;;;;4127649;28;20501;-65
2023/06/21 10:33:02;;;;;;;5.63;4.22;;;29.30;85.50;;;;;;4127459;28;20023;-75
2023/06/21 10:35:13;;;;;;;6.70;4.47;;;29.30;85.60;;;;;;4126789;28;20042;-67
2023/06/21 10:37:48;;;;;;;5.85;4.90;;;29.30;85.50;;;;;;4128518;28;20030;-70